Eau Pleine, Wisconsin
Current Conditions -  °F | °C
As of 1:55 PM on Thursday 30 Oct 2014 (Local Time) from KSTE Reporting Station
Overcast Overcast  
Wind Chill: 41°   Ceiling: 5000
Heat Index: 46°   Visibility: 10mi
Dew Point: 33°   Wind: 8mph
Humidity: 62%   Direction: 290°WNW
Pressure: 30.03"   Gusts: NA
Location:  44.6097°N, 89.7558°W
Report Text: KSTE 301855Z AUTO 29007KT 10SM SCT031 BKN050 OVC090 08/01 A3003 RMK AO2 T00750006
Loading
Personal Weather Stations






























Interactive Weather Map
Tropical Storm Tracking
New forecast layout! Learn more

10-Day Weather Forecast

Advertisements
Track Severe Weather on mobile